Time;durP1;ratioP1;P1;durP2;ratioP2;P2;SDS_P1;SDS_P2;PMS_P1;PMS_P2;Temp;Humidity;BMP_temperature;BMP_pressure;BME280_temperature;BME280_humidity;BME280_pressure;Samples;Min_cycle;Max_cycle;Signal;HPM_P1;HPM_P2
2023/08/16 00:00:47;;;;;;;;;;;;;;;23.03;47.98;101828.13;4839762;29;115649;-78
2023/08/16 00:03:14;;;;;;;;;;;;;;;23.01;48.17;101825.56;4834748;29;114565;-78
2023/08/16 00:05:42;;;;;;;;;;;;;;;22.99;48.05;101830.22;4837899;29;125155;-78
2023/08/16 00:08:09;;;;;;;;;;;;;;;22.98;48.07;101825.81;4856542;28;124591;-77
2023/08/16 00:10:36;;;;;;;;;;;;;;;22.95;48.03;101823.38;4841968;28;113386;-78
2023/08/16 00:13:03;;;;;;;;;;;;;;;22.90;48.03;101817.47;4827803;29;114675;-78
2023/08/16 00:15:30;;;;;;;;;;;;;;;22.87;47.99;101825.84;4827540;29;123601;-78
2023/08/16 00:17:57;;;;;;;;;;;;;;;22.84;48.10;101817.97;4846972;28;123268;-78
2023/08/16 00:20:26;;;;;;;;;;;;;;;22.80;48.13;101821.94;4832534;29;115037;-78
2023/08/16 00:22:54;;;;;;;;;;;;;;;22.76;48.08;101825.88;4864341;28;113859;-78
2023/08/16 00:25:21;;;;;;;;;;;;;;;22.72;48.01;101834.22;4844505;29;123650;-78
2023/08/16 00:27:48;;;;;;;;;;;;;;;22.68;48.24;101830.03;4848031;29;123381;-78
2023/08/16 00:30:15;;;;;;;;;;;;;;;22.63;48.15;101824.16;4847381;29;114196;-77
2023/08/16 00:32:43;;;;;;;;;;;;;;;22.62;48.31;101835.94;4840568;28;113180;-78
2023/08/16 00:35:10;;;;;;;;;;;;;;;22.59;48.38;101830.78;4848979;29;123951;-77
2023/08/16 00:37:36;;;;;;;;;;;;;;;22.57;48.25;101832.75;4836162;29;123311;-78
2023/08/16 00:40:04;;;;;;;;;;;;;;;22.56;48.28;101836.41;4832927;29;114055;-78
2023/08/16 00:42:31;;;;;;;;;;;;;;;22.54;48.29;101832.97;4849274;29;114071;-78
2023/08/16 00:44:58;;;;;;;;;;;;;;;22.52;48.27;101840.34;4847073;29;122370;-77
2023/08/16 00:47:25;;;;;;;;;;;;;;;22.50;48.38;101836.91;4865002;28;123798;-78
2023/08/16 00:49:53;;;;;;;;;;;;;;;22.49;48.35;101840.56;4838715;29;116164;-78
2023/08/16 00:52:20;;;;;;;;;;;;;;;22.47;48.41;101837.16;4847579;29;114291;-77
2023/08/16 00:54:47;;;;;;;;;;;;;;;22.45;48.42;101844.50;4851097;29;123320;-78
2023/08/16 00:57:14;;;;;;;;;;;;;;;22.44;48.37;101842.81;4861352;28;124209;-78
2023/08/16 00:59:41;;;;;;;;;;;;;;;22.43;48.48;101846.47;4837707;29;115392;-78
2023/08/16 01:02:08;;;;;;;;;;;;;;;22.43;48.48;101851.88;4842773;29;113204;-78
2023/08/16 01:04:36;;;;;;;;;;;;;;;22.43;48.49;101849.19;4846564;29;123660;-78
2023/08/16 01:07:03;;;;;;;;;;;;;;;22.42;48.49;101847.47;4839348;28;123024;-78
2023/08/16 01:09:31;;;;;;;;;;;;;;;22.41;48.56;101843.91;4834281;29;115702;-78
2023/08/16 01:12:17;;;;;;;;;;;;;;;22.42;48.63;101860.97;4833506;29;114689;-78
2023/08/16 01:14:51;;;;;;;;;;;;;;;22.41;48.59;101861.94;4834822;29;124554;-78
2023/08/16 01:17:20;;;;;;;;;;;;;;;22.41;48.62;101864.63;4844476;29;122341;-77
2023/08/16 01:19:49;;;;;;;;;;;;;;;22.41;48.65;101870.03;4843118;28;113920;-78
2023/08/16 01:22:26;;;;;;;;;;;;;;;22.42;48.68;101860.97;4857076;28;114236;-78
2023/08/16 01:25:11;;;;;;;;;;;;;;;22.42;48.88;101860.97;4840169;28;124513;-78
2023/08/16 01:27:38;;;;;;;;;;;;;;;22.42;48.56;101860.97;4841612;29;123693;-78
2023/08/16 01:30:06;;;;;;;;;;;;;;;22.41;48.64;101859.25;4827844;29;113333;-78
2023/08/16 01:32:33;;;;;;;;;;;;;;;22.39;48.67;101866.59;4837351;29;113617;-77
2023/08/16 01:35:00;;;;;;;;;;;;;;;22.38;48.77;101867.56;4833556;29;124098;-78
2023/08/16 01:37:27;;;;;;;;;;;;;;;22.37;48.68;101868.56;4837904;29;123215;-78
2023/08/16 01:39:59;;;;;;;;;;;;;;;22.34;48.72;101875.94;4843472;29;115152;-78
2023/08/16 01:42:27;;;;;;;;;;;;;;;22.33;48.80;101873.34;4838169;29;112582;-78
2023/08/16 01:44:58;;;;;;;;;;;;;;;22.30;48.81;101868.19;4858429;28;123978;-78
2023/08/16 01:47:27;;;;;;;;;;;;;;;22.26;48.70;101864.84;4830040;29;123037;-78
2023/08/16 01:49:55;;;;;;;;;;;;;;;22.23;48.83;101867.78;4836772;29;114332;-78
2023/08/16 01:52:24;;;;;;;;;;;;;;;22.21;48.82;101869.75;4846810;29;113251;-78
2023/08/16 01:54:51;;;;;;;;;;;;;;;22.20;48.76;101868.00;4839136;29;124243;-77
2023/08/16 01:57:19;;;;;;;;;;;;;;;22.20;49.01;101875.25;4832020;29;124434;-78
2023/08/16 01:59:46;;;;;;;;;;;;;;;22.18;48.87;101872.66;4850883;28;115088;-78
2023/08/16 02:02:13;;;;;;;;;;;;;;;22.19;48.95;101865.44;4836728;29;113377;-78
2023/08/16 02:04:40;;;;;;;;;;;;;;;22.19;49.00;101873.53;4839191;29;123319;-78
2023/08/16 02:07:07;;;;;;;;;;;;;;;22.17;48.96;101876.38;4843910;29;124191;-78
2023/08/16 02:09:34;;;;;;;;;;;;;;;22.17;49.05;101884.47;4856116;28;114225;-78
2023/08/16 02:12:01;;;;;;;;;;;;;;;22.18;49.04;101888.84;4842971;29;113686;-78
2023/08/16 02:14:28;;;;;;;;;;;;;;;22.18;49.03;101886.16;4836297;29;123778;-78
2023/08/16 02:16:55;;;;;;;;;;;;;;;22.20;49.07;101900.38;4842779;28;124375;-78
2023/08/16 02:19:22;;;;;;;;;;;;;;;22.20;49.16;101895.00;4860992;28;115130;-78
2023/08/16 02:21:48;;;;;;;;;;;;;;;22.21;49.09;101885.94;4845209;29;113623;-78
2023/08/16 02:24:17;;;;;;;;;;;;;;;22.20;49.12;101884.19;4842006;29;125115;-78
2023/08/16 02:26:43;;;;;;;;;;;;;;;22.21;49.14;101893.16;4857578;28;123226;-77
2023/08/16 02:29:10;;;;;;;;;;;;;;;22.20;49.14;101889.59;4840833;29;114797;-78
2023/08/16 02:31:37;;;;;;;;;;;;;;;22.19;49.03;101882.50;4842446;29;115392;-78
2023/08/16 02:34:04;;;;;;;;;;;;;;;22.20;49.03;101883.34;4839811;28;125315;-78
2023/08/16 02:36:32;;;;;;;;;;;;;;;22.18;49.13;101875.38;4839581;29;124389;-78
2023/08/16 02:38:59;;;;;;;;;;;;;;;22.17;49.11;101868.28;4858211;28;116077;-78
2023/08/16 02:41:26;;;;;;;;;;;;;;;22.15;49.21;101871.09;4835866;29;114013;-78
2023/08/16 02:43:53;;;;;;;;;;;;;;;22.15;49.25;101886.38;4842262;29;125511;-78
2023/08/16 02:46:20;;;;;;;;;;;;;;;22.12;49.30;101874.00;4822756;29;123649;-78
2023/08/16 02:48:47;;;;;;;;;;;;;;;22.13;49.23;101882.94;4838432;29;114364;-78
2023/08/16 02:51:14;;;;;;;;;;;;;;;22.12;49.19;101875.84;4838698;29;114730;-78
2023/08/16 02:53:41;;;;;;;;;;;;;;;22.10;49.27;101873.28;4846121;29;124315;-78
2023/08/16 02:56:08;;;;;;;;;;;;;;;22.08;49.16;101874.38;4863433;28;124638;-77
2023/08/16 02:58:35;;;;;;;;;;;;;;;22.07;49.19;101878.03;4851813;28;114008;-78
2023/08/16 03:01:02;;;;;;;;;;;;;;;22.07;49.27;101880.75;4842159;29;113427;-78
2023/08/16 03:03:29;;;;;;;;;;;;;;;22.05;49.25;101877.31;4840436;29;124357;-78
2023/08/16 03:05:56;;;;;;;;;;;;;;;22.03;49.28;101874.72;4845704;29;124092;-78
2023/08/16 03:08:23;;;;;;;;;;;;;;;22.01;49.36;101881.22;4866890;28;114741;-77
2023/08/16 03:10:50;;;;;;;;;;;;;;;21.97;49.26;101873.34;4853502;29;112809;-78
2023/08/16 03:13:17;;;;;;;;;;;;;;;21.94;49.30;101878.13;4849023;28;122115;-77
2023/08/16 03:15:44;;;;;;;;;;;;;;;21.91;49.31;101879.22;4850656;29;123235;-78
2023/08/16 03:18:11;;;;;;;;;;;;;;;21.88;49.38;101874.06;4840900;29;114732;-78
2023/08/16 03:20:38;;;;;;;;;;;;;;;21.87;49.40;101877.75;4842621;29;114998;-78
2023/08/16 03:23:06;;;;;;;;;;;;;;;21.86;49.44;101876.00;4845873;29;117411;-77
2023/08/16 03:25:33;;;;;;;;;;;;;;;21.84;49.45;101872.56;4845262;29;124930;-78
2023/08/16 03:28:00;;;;;;;;;;;;;;;21.84;49.54;101871.72;4861361;29;113871;-78
2023/08/16 03:30:28;;;;;;;;;;;;;;;21.83;49.54;101878.97;4869136;28;113309;-78
2023/08/16 03:32:55;;;;;;;;;;;;;;;21.81;49.42;101883.59;4855640;29;124772;-77
2023/08/16 03:35:22;;;;;;;;;;;;;;;21.81;49.54;101894.38;4844163;29;123410;-78
2023/08/16 03:37:49;;;;;;;;;;;;;;;21.80;49.51;101898.06;4850385;28;114077;-78
2023/08/16 03:40:16;;;;;;;;;;;;;;;21.80;49.50;101906.16;4856417;28;114209;-78
2023/08/16 03:42:43;;;;;;;;;;;;;;;21.79;49.53;101899.03;4853341;28;124216;-77
2023/08/16 03:45:10;;;;;;;;;;;;;;;21.80;49.61;101902.59;4838960;29;123942;-78
2023/08/16 03:47:38;;;;;;;;;;;;;;;21.80;49.59;101900.75;4862537;28;113993;-78
2023/08/16 03:50:05;;;;;;;;;;;;;;;21.80;49.55;101892.66;4850450;29;113064;-78
2023/08/16 03:52:32;;;;;;;;;;;;;;;21.80;49.49;101898.06;4839223;29;124021;-78
2023/08/16 03:54:59;;;;;;;;;;;;;;;21.79;49.57;101901.72;4856962;28;124229;-78
2023/08/16 03:57:26;;;;;;;;;;;;;;;21.76;49.55;101891.19;4842783;29;114580;-78
2023/08/16 03:59:54;;;;;;;;;;;;;;;21.74;49.67;101903.94;4840099;29;114192;-78
2023/08/16 04:02:21;;;;;;;;;;;;;;;21.72;49.58;101905.88;4834664;29;124735;-78
2023/08/16 04:04:52;;;;;;;;;;;;;;;21.71;49.69;101909.53;4844351;29;124254;-78
2023/08/16 04:07:19;;;;;;;;;;;;;;;21.68;49.66;101916.03;4835496;29;115894;-78
2023/08/16 04:09:46;;;;;;;;;;;;;;;21.68;49.69;101909.75;4839215;29;115385;-78
2023/08/16 04:12:13;;;;;;;;;;;;;;;21.69;49.75;101908.81;4863130;28;123808;-77
2023/08/16 04:14:40;;;;;;;;;;;;;;;21.68;49.64;101909.75;4846829;29;124106;-78
2023/08/16 04:17:07;;;;;;;;;;;;;;;21.66;49.68;101911.72;4863354;28;116239;-78
2023/08/16 04:19:34;;;;;;;;;;;;;;;21.64;49.65;101911.81;4843338;29;113346;-80
2023/08/16 04:22:01;;;;;;;;;;;;;;;21.62;49.79;101910.22;4836378;29;125109;-78
2023/08/16 04:24:28;;;;;;;;;;;;;;;21.62;49.76;101910.22;4842724;29;124010;-78
2023/08/16 04:26:55;;;;;;;;;;;;;;;21.59;49.65;101911.34;4840457;29;115261;-78
2023/08/16 04:29:22;;;;;;;;;;;;;;;21.57;49.63;101914.13;4833919;29;113942;-77
2023/08/16 04:31:49;;;;;;;;;;;;;;;21.54;49.71;101902.72;4848332;29;125085;-78
2023/08/16 04:34:16;;;;;;;;;;;;;;;21.50;49.76;101912.88;4858226;28;123706;-78
2023/08/16 04:36:43;;;;;;;;;;;;;;;21.49;49.82;101919.25;4836780;29;114285;-77
2023/08/16 04:39:12;;;;;;;;;;;;;;;21.46;49.76;101906.00;4849497;29;112226;-78
2023/08/16 04:41:39;;;;;;;;;;;;;;;21.46;49.89;101906.00;4832024;29;123813;-78
2023/08/16 04:44:06;;;;;;;;;;;;;;;21.46;49.81;101906.00;4847259;29;125304;-78
2023/08/16 04:46:33;;;;;;;;;;;;;;;21.45;49.79;101909.66;4840255;29;115132;-78
2023/08/16 04:49:00;;;;;;;;;;;;;;;21.40;49.79;101911.81;4848242;29;114610;-77
2023/08/16 04:51:28;;;;;;;;;;;;;;;21.37;49.90;101922.81;4849030;29;124435;-78
2023/08/16 04:53:55;;;;;;;;;;;;;;;21.34;49.92;101933.81;4846489;28;123498;-78
2023/08/16 04:56:23;;;;;;;;;;;;;;;21.33;50.04;101938.34;4855270;28;114571;-78
2023/08/16 04:58:50;;;;;;;;;;;;;;;21.36;50.02;101948.03;4847470;29;113098;-77
2023/08/16 05:01:17;;;;;;;;;;;;;;;21.37;49.95;101945.22;4840183;29;124979;-78
2023/08/16 05:03:50;;;;;;;;;;;;;;;21.38;49.99;101946.09;4843839;29;123780;-78
2023/08/16 05:06:18;;;;;;;;;;;;;;;21.37;50.08;101949.75;4838651;28;116363;-78
2023/08/16 05:08:47;;;;;;;;;;;;;;;21.38;50.01;101946.09;4844794;28;114165;-77
2023/08/16 05:11:17;;;;;;;;;;;;;;;21.37;50.01;101945.22;4831631;29;123883;-78
2023/08/16 05:13:45;;;;;;;;;;;;;;;21.38;50.14;101951.50;4841764;28;123309;-78
2023/08/16 05:16:12;;;;;;;;;;;;;;;21.38;50.03;101948.81;4867516;28;113959;-78
2023/08/16 05:18:39;;;;;;;;;;;;;;;21.40;50.01;101954.94;4847554;28;112577;-78
2023/08/16 05:21:06;;;;;;;;;;;;;;;21.39;50.08;101953.19;4840219;29;124855;-78
2023/08/16 05:23:34;;;;;;;;;;;;;;;21.38;50.13;101946.09;4843533;29;124263;-78
2023/08/16 05:26:01;;;;;;;;;;;;;;;21.39;50.03;101955.91;4862532;28;114172;-77
2023/08/16 05:28:27;;;;;;;;;;;;;;;21.39;50.12;101950.50;4854128;28;113658;-78
2023/08/16 05:30:54;;;;;;;;;;;;;;;21.37;50.13;101949.75;4858269;28;124373;-78
2023/08/16 05:33:21;;;;;;;;;;;;;;;21.36;50.04;101954.28;4856239;28;124928;-78
2023/08/16 05:35:49;;;;;;;;;;;;;;;21.36;50.17;101948.03;4827837;29;113644;-78
2023/08/16 05:38:18;;;;;;;;;;;;;;;21.37;50.13;101949.75;4837524;29;113112;-78
2023/08/16 05:40:44;;;;;;;;;;;;;;;21.39;50.11;101947.81;4843277;29;123859;-77
2023/08/16 05:43:11;;;;;;;;;;;;;;;21.42;50.25;101947.59;4859042;28;124510;-77
2023/08/16 05:45:38;;;;;;;;;;;;;;;21.44;50.31;101951.06;4837794;29;115574;-78
2023/08/16 05:48:05;;;;;;;;;;;;;;;21.48;50.26;101957.94;4834322;29;114319;-77
2023/08/16 05:50:34;;;;;;;;;;;;;;;21.48;50.22;101957.94;4853093;28;124453;-79
2023/08/16 05:53:01;;;;;;;;;;;;;;;21.48;50.25;101963.34;4846825;29;122187;-77
2023/08/16 05:55:28;;;;;;;;;;;;;;;21.49;50.26;101959.69;4850026;28;114825;-79
2023/08/16 05:57:55;;;;;;;;;;;;;;;21.52;50.48;101964.84;4848292;29;113920;-79
2023/08/16 06:00:22;;;;;;;;;;;;;;;21.54;50.39;101968.28;4848600;29;124506;-79
2023/08/16 06:02:49;;;;;;;;;;;;;;;21.58;50.27;101974.31;4851578;28;124184;-79
2023/08/16 06:05:15;;;;;;;;;;;;;;;21.61;50.45;101973.22;4843007;29;114291;-79
2023/08/16 06:07:42;;;;;;;;;;;;;;;21.67;50.35;101967.38;4836193;29;114525;-79
2023/08/16 06:10:09;;;;;;;;;;;;;;;21.69;50.27;101971.69;4843970;29;125544;-79
2023/08/16 06:12:36;;;;;;;;;;;;;;;21.73;50.38;101962.38;4843555;29;124449;-80
2023/08/16 06:15:03;;;;;;;;;;;;;;;21.75;50.38;101975.75;4848659;29;114797;-79
2023/08/16 06:17:30;;;;;;;;;;;;;;;21.77;50.33;101976.50;4837910;29;114198;-79
2023/08/16 06:19:57;;;;;;;;;;;;;;;21.79;50.47;101982.63;4845014;29;124062;-79
2023/08/16 06:22:24;;;;;;;;;;;;;;;21.84;50.43;101983.16;4844968;29;123876;-79
2023/08/16 06:24:53;;;;;;;;;;;;;;;21.90;50.36;101982.69;4843891;29;113472;-79
2023/08/16 06:27:20;;;;;;;;;;;;;;;21.95;50.44;101983.22;4832992;29;113243;-80
2023/08/16 06:29:47;;;;;;;;;;;;;;;22.02;50.44;101980.03;4842522;29;122758;-79
2023/08/16 06:32:14;;;;;;;;;;;;;;;22.08;50.46;101976.91;4829638;29;124996;-79
2023/08/16 06:34:41;;;;;;;;;;;;;;;22.17;50.56;101981.59;4835657;29;114898;-79
2023/08/16 06:37:09;;;;;;;;;;;;;;;22.24;50.45;101982.84;4828078;29;115226;-79
2023/08/16 06:39:35;;;;;;;;;;;;;;;22.28;50.31;101984.38;4838590;28;124258;-79
2023/08/16 06:42:03;;;;;;;;;;;;;;;22.31;50.23;101986.81;4841862;29;124620;-79
2023/08/16 06:44:31;;;;;;;;;;;;;;;22.35;50.39;101980.19;4843952;29;114085;-79
2023/08/16 06:46:58;;;;;;;;;;;;;;;22.39;50.31;101979.97;4836426;29;114236;-79
2023/08/16 06:49:24;;;;;;;;;;;;;;;22.42;50.34;101985.16;4842166;29;124612;-79
2023/08/16 06:51:51;;;;;;;;;;;;;;;22.45;50.31;101979.50;4834151;29;124000;-79
2023/08/16 06:54:18;;;;;;;;;;;;;;;22.46;50.15;101981.22;4844749;28;114474;-79
2023/08/16 06:56:45;;;;;;;;;;;;;;;22.47;50.16;101972.13;4858687;28;113822;-79
2023/08/16 06:59:12;;;;;;;;;;;;;;;22.49;50.09;101970.16;4839232;29;124267;-79
2023/08/16 07:01:39;;;;;;;;;;;;;;;22.52;50.28;101961.84;4826475;29;124012;-79
2023/08/16 07:04:06;;;;;;;;;;;;;;;22.58;50.22;101980.25;4822319;29;114704;-79
2023/08/16 07:06:33;;;;;;;;;;;;;;;22.64;50.29;101985.22;4839407;29;113630;-79
2023/08/16 07:09:00;;;;;;;;;;;;;;;22.70;50.44;101984.72;4843709;29;124515;-79
2023/08/16 07:11:27;;;;;;;;;;;;;;;22.79;50.38;102001.16;4843790;29;123277;-79
2023/08/16 07:13:54;;;;;;;;;;;;;;;22.83;50.27;101999.94;4843447;29;114458;-79
2023/08/16 07:16:21;;;;;;;;;;;;;;;22.87;50.24;101990.63;4839997;29;114405;-79
2023/08/16 07:18:48;;;;;;;;;;;;;;;22.92;50.18;101993.81;4857650;28;123084;-79
2023/08/16 07:21:17;;;;;;;;;;;;;;;22.98;50.17;101993.34;4826444;29;124839;-79
2023/08/16 07:23:44;;;;;;;;;;;;;;;23.03;50.24;101996.56;4831544;29;115338;-77
2023/08/16 07:26:11;;;;;;;;;;;;;;;23.10;50.35;101997.78;4826374;29;114241;-77
2023/08/16 07:28:38;;;;;;;;;;;;;;;23.18;50.27;101999.03;4840521;29;124969;-76
2023/08/16 07:31:05;;;;;;;;;;;;;;;23.25;50.23;101992.16;4835946;29;124139;-79
2023/08/16 07:33:34;;;;;;;;;;;;;;;23.33;50.01;101984.25;4839723;29;114848;-79
2023/08/16 07:36:02;;;;;;;;;;;;;;;23.42;50.41;101983.53;4839447;29;113832;-79
2023/08/16 07:38:30;;;;;;;;;;;;;;;23.56;50.34;101987.78;4836805;29;124551;-78
2023/08/16 07:40:57;;;;;;;;;;;;;;;23.69;50.23;101987.63;4838036;29;124001;-78
2023/08/16 07:43:24;;;;;;;;;;;;;;;23.82;50.25;101991.06;4838345;29;114898;-78
2023/08/16 07:45:54;;;;;;;;;;;;;;;23.97;50.20;101988.09;4838196;29;113885;-78
2023/08/16 07:48:21;;;;;;;;;;;;;;;24.11;50.26;101993.22;4848035;29;123986;-77
2023/08/16 07:50:49;;;;;;;;;;;;;;;24.25;50.18;101986.63;4825412;29;123692;-78
2023/08/16 07:53:16;;;;;;;;;;;;;;;24.37;50.13;101998.22;4851003;29;114586;-78
2023/08/16 07:55:43;;;;;;;;;;;;;;;24.50;50.07;102004.31;4849627;29;112675;-78
2023/08/16 07:58:10;;;;;;;;;;;;;;;24.63;49.94;102004.16;4845850;29;123118;-78
2023/08/16 08:00:37;;;;;;;;;;;;;;;24.76;50.13;102006.66;4862935;28;124097;-78
2023/08/16 08:03:05;;;;;;;;;;;;;;;24.92;50.29;101998.91;4839488;29;114589;-78
2023/08/16 08:05:32;;;;;;;;;;;;;;;25.05;49.99;102004.97;4861801;28;114140;-78
2023/08/16 08:08:00;;;;;;;;;;;;;;;25.20;49.91;102012.72;4844782;29;123149;-78
2023/08/16 08:10:29;;;;;;;;;;;;;;;25.33;49.89;102013.38;4838101;29;123314;-77
2023/08/16 08:12:56;;;;;;;;;;;;;;;25.44;49.88;102015.13;4842876;29;115330;-78
2023/08/16 08:15:23;;;;;;;;;;;;;;;25.53;49.64;102027.00;4845669;29;113752;-78
2023/08/16 08:17:50;;;;;;;;;;;;;;;25.53;49.30;102013.44;4856323;28;124182;-78
2023/08/16 08:20:17;;;;;;;;;;;;;;;25.44;49.19;102010.56;4837344;29;124407;-78
2023/08/16 08:22:44;;;;;;;;;;;;;;;25.37;49.50;102009.41;4837573;29;115048;-78
2023/08/16 08:25:11;;;;;;;;;;;;;;;25.39;49.40;102018.25;4837414;29;113029;-78
2023/08/16 08:27:38;;;;;;;;;;;;;;;25.47;49.56;102024.84;4837097;29;125167;-78
2023/08/16 08:30:07;;;;;;;;;;;;;;;25.59;49.79;102018.31;4846383;29;122962;-78
2023/08/16 08:32:34;;;;;;;;;;;;;;;25.68;49.69;102017.47;4845993;29;115613;-78
2023/08/16 08:35:04;;;;;;;;;;;;;;;25.73;49.64;102026.06;4836607;29;113770;-78
2023/08/16 08:37:31;;;;;;;;;;;;;;;25.76;49.59;102025.78;4837010;29;124111;-78
2023/08/16 08:39:58;;;;;;;;;;;;;;;25.78;49.43;102028.34;4840043;29;124133;-78
2023/08/16 08:42:27;;;;;;;;;;;;;;;25.79;49.37;102025.50;4842717;29;113908;-78
2023/08/16 08:44:55;;;;;;;;;;;;;;;25.80;49.43;102021.78;4849005;29;114259;-78
2023/08/16 08:47:22;;;;;;;;;;;;;;;25.89;49.26;102030.09;4846696;29;124657;-77
2023/08/16 08:49:50;;;;;;;;;;;;;;;25.97;49.60;102027.56;4860517;28;123975;-78
2023/08/16 08:52:17;;;;;;;;;;;;;;;26.06;49.35;102029.41;4837708;29;114728;-77
2023/08/16 08:54:46;;;;;;;;;;;;;;;26.11;49.19;102021.72;4837554;29;114249;-78
2023/08/16 08:57:14;;;;;;;;;;;;;;;26.12;49.20;102031.56;4841175;29;122745;-77
2023/08/16 08:59:45;;;;;;;;;;;;;;;26.12;49.12;102031.56;4849830;29;123895;-78
2023/08/16 09:02:12;;;;;;;;;;;;;;;26.18;49.47;102031.00;4831712;29;116214;-77
2023/08/16 09:04:41;;;;;;;;;;;;;;;26.25;49.54;102030.44;4832451;29;116243;-78
2023/08/16 09:07:11;;;;;;;;;;;;;;;26.31;49.44;102021.72;4842232;29;125134;-78
2023/08/16 09:09:38;;;;;;;;;;;;;;;26.31;49.32;102024.41;4839639;29;123578;-78
2023/08/16 09:12:05;;;;;;;;;;;;;;;26.26;48.88;102033.00;4846675;29;115350;-78
2023/08/16 09:14:32;;;;;;;;;;;;;;;26.20;48.92;102044.44;4839384;29;114746;-78
2023/08/16 09:16:59;;;;;;;;;;;;;;;26.11;48.77;102035.28;4851294;29;123800;-78
2023/08/16 09:19:26;;;;;;;;;;;;;;;26.02;48.94;102030.72;4847331;29;124002;-78
2023/08/16 09:21:55;;;;;;;;;;;;;;;25.96;49.11;102029.41;4855177;29;112712;-78
2023/08/16 09:24:26;;;;;;;;;;;;;;;25.96;49.33;102025.84;4843308;29;113520;-77
2023/08/16 09:26:53;;;;;;;;;;;;;;;25.96;49.10;102026.72;4840811;29;122422;-78
2023/08/16 09:29:20;;;;;;;;;;;;;;;25.97;48.93;102032.97;4861544;28;123744;-78
2023/08/16 09:31:47;;;;;;;;;;;;;;;25.99;49.49;102036.41;4868543;28;114211;-77
2023/08/16 09:34:14;;;;;;;;;;;;;;;26.06;49.06;102036.72;4843465;29;111903;-78
2023/08/16 09:36:42;;;;;;;;;;;;;;;26.09;49.48;102031.88;4838012;29;124235;-78
2023/08/16 09:39:09;;;;;;;;;;;;;;;26.20;49.41;102039.00;4822643;29;124851;-78
2023/08/16 09:41:49;;;;;;;;;;;;;;;26.29;49.17;102031.84;4837823;29;114885;-78
2023/08/16 09:44:17;;;;;;;;;;;;;;;26.37;49.02;102032.00;4845275;28;112833;-78
2023/08/16 09:46:44;;;;;;;;;;;;;;;26.44;49.32;102030.41;4835757;29;125111;-78
2023/08/16 09:49:15;;;;;;;;;;;;;;;26.54;49.25;102025.84;4843267;29;123207;-78
2023/08/16 09:51:45;;;;;;;;;;;;;;;26.66;49.25;102023.00;4848442;29;115339;-78
2023/08/16 09:54:17;;;;;;;;;;;;;;;26.78;49.20;102022.66;4836432;29;114183;-78
2023/08/16 09:56:45;;;;;;;;;;;;;;;26.90;49.32;102026.09;4850688;28;124587;-77
2023/08/16 09:59:15;;;;;;;;;;;;;;;26.96;48.85;102020.03;4831986;29;123636;-78
2023/08/16 10:01:45;;;;;;;;;;;;;;;27.02;48.88;102013.16;4845889;29;115008;-78
2023/08/16 10:04:16;;;;;;;;;;;;;;;27.10;48.78;102012.41;4836073;29;112992;-78
2023/08/16 10:06:47;;;;;;;;;;;;;;;27.17;48.89;102016.25;4824403;29;123132;-78
2023/08/16 10:09:17;;;;;;;;;;;;;;;27.27;49.25;102017.09;4837599;29;124341;-78
2023/08/16 10:11:45;;;;;;;;;;;;;;;27.30;48.74;102016.78;4849512;29;113708;-78
2023/08/16 10:14:12;;;;;;;;;;;;;;;27.25;48.78;102013.66;4844614;28;112976;-78
2023/08/16 10:16:40;;;;;;;;;;;;;;;27.21;48.49;102004.06;4848166;29;124155;-78
2023/08/16 10:19:11;;;;;;;;;;;;;;;27.18;48.46;102016.09;4842502;29;123748;-78
2023/08/16 10:21:43;;;;;;;;;;;;;;;27.19;48.54;102014.22;4853055;29;114639;-77
2023/08/16 10:24:13;;;;;;;;;;;;;;;27.24;48.71;102017.38;4831401;29;113652;-78
2023/08/16 10:26:41;;;;;;;;;;;;;;;27.29;48.52;102025.09;4835197;29;124109;-77
2023/08/16 10:29:09;;;;;;;;;;;;;;;27.32;48.74;102025.66;4835475;29;123848;-78
2023/08/16 10:31:41;;;;;;;;;;;;;;;27.35;48.85;102025.38;4845544;29;114154;-78
2023/08/16 10:34:10;;;;;;;;;;;;;;;27.40;48.44;102027.63;4838196;29;113453;-78
2023/08/16 10:36:37;;;;;;;;;;;;;;;27.43;48.51;102021.88;4837806;29;124978;-78
2023/08/16 10:39:04;;;;;;;;;;;;;;;27.45;48.45;102022.59;4843003;29;123378;-78
2023/08/16 10:41:40;;;;;;;;;;;;;;;27.49;48.34;102020.44;4841105;29;115913;-78
2023/08/16 10:44:08;;;;;;;;;;;;;;;27.53;48.50;102016.38;4850426;29;113609;-78
2023/08/16 10:46:36;;;;;;;;;;;;;;;27.55;48.49;102008.94;4835925;29;124591;-78
2023/08/16 10:49:07;;;;;;;;;;;;;;;27.58;48.48;102008.63;4859842;28;124520;-78
2023/08/16 10:51:47;;;;;;;;;;;;;;;27.63;48.57;102005.44;4840524;29;114657;-78
2023/08/16 10:54:15;;;;;;;;;;;;;;;27.67;48.36;102013.16;4844381;28;112171;-78
2023/08/16 10:56:49;;;;;;;;;;;;;;;27.71;48.65;102009.13;4840127;29;124342;-78
2023/08/16 10:59:16;;;;;;;;;;;;;;;27.76;48.62;102006.81;4834138;29;122859;-78
2023/08/16 11:01:44;;;;;;;;;;;;;;;27.84;48.38;102007.88;4859690;28;114712;-78
2023/08/16 11:04:11;;;;;;;;;;;;;;;27.88;48.36;102014.75;4840202;29;113806;-78
2023/08/16 11:06:39;;;;;;;;;;;;;;;27.93;48.47;102006.97;4842957;29;124180;-78
2023/08/16 11:09:17;;;;;;;;;;;;;;;28.01;48.37;102004.34;4826734;29;123972;-78
2023/08/16 11:11:45;;;;;;;;;;;;;;;28.12;48.56;102000.50;4826420;29;114689;-78
2023/08/16 11:14:12;;;;;;;;;;;;;;;28.22;48.13;102011.31;4827579;29;112539;-78
2023/08/16 11:16:39;;;;;;;;;;;;;;;28.26;48.17;102012.75;4851983;29;123741;-78
2023/08/16 11:19:08;;;;;;;;;;;;;;;28.25;48.15;102005.56;4837371;29;124957;-78
2023/08/16 11:21:44;;;;;;;;;;;;;;;28.26;47.94;101999.13;4842666;29;114459;-78
2023/08/16 11:24:11;;;;;;;;;;;;;;;28.26;47.95;101990.94;4860862;28;113636;-78
2023/08/16 11:26:38;;;;;;;;;;;;;;;28.25;47.93;102002.84;4842110;29;124473;-78
2023/08/16 11:29:06;;;;;;;;;;;;;;;28.24;47.75;101998.44;4860648;28;123971;-78
2023/08/16 11:31:34;;;;;;;;;;;;;;;28.24;47.81;101998.44;4848259;29;115301;-78
2023/08/16 11:34:06;;;;;;;;;;;;;;;28.23;47.99;101997.56;4837698;29;115028;-77
2023/08/16 11:36:35;;;;;;;;;;;;;;;28.22;47.97;101997.69;4836294;29;124244;-78
2023/08/16 11:39:04;;;;;;;;;;;;;;;28.20;47.56;101997.00;4839098;29;124481;-78
2023/08/16 11:41:31;;;;;;;;;;;;;;;28.19;47.92;101995.31;4848100;29;114785;-78
2023/08/16 11:43:59;;;;;;;;;;;;;;;28.21;47.78;101993.28;4837740;29;113284;-77
2023/08/16 11:46:27;;;;;;;;;;;;;;;28.23;47.93;101997.56;4846952;28;124481;-78
2023/08/16 11:48:54;;;;;;;;;;;;;;;28.25;47.80;102000.13;4865004;28;124177;-78
2023/08/16 11:51:25;;;;;;;;;;;;;;;28.28;47.73;101988.91;4840363;29;114778;-78
2023/08/16 11:53:52;;;;;;;;;;;;;;;28.33;47.90;101989.28;4865591;28;112238;-77
2023/08/16 11:56:26;;;;;;;;;;;;;;;28.38;48.08;101989.66;4837938;29;124015;-78
2023/08/16 11:58:55;;;;;;;;;;;;;;;28.45;48.05;101990.75;4843043;29;121598;-78
2023/08/16 12:01:23;;;;;;;;;;;;;;;28.48;47.80;101993.16;4847557;29;114409;-78
2023/08/16 12:03:50;;;;;;;;;;;;;;;28.48;47.76;101987.72;4857949;28;114256;-77
2023/08/16 12:06:17;;;;;;;;;;;;;;;28.48;47.71;101979.53;4863745;28;126192;-78
2023/08/16 12:08:51;;;;;;;;;;;;;;;28.51;47.78;101979.22;4843590;29;123357;-78
2023/08/16 12:11:25;;;;;;;;;;;;;;;28.52;47.82;101969.22;4830403;29;114718;-78
2023/08/16 12:13:52;;;;;;;;;;;;;;;28.49;47.85;101970.34;4857007;28;113846;-77
2023/08/16 12:16:19;;;;;;;;;;;;;;;28.47;47.52;101966.91;4829602;29;124102;-78
2023/08/16 12:18:48;;;;;;;;;;;;;;;28.50;47.74;101971.19;4841963;29;124293;-78
2023/08/16 12:21:15;;;;;;;;;;;;;;;28.51;47.70;101976.47;4845019;29;115100;-77
2023/08/16 12:23:42;;;;;;;;;;;;;;;28.57;47.70;101971.44;4827977;29;113947;-78
2023/08/16 12:26:09;;;;;;;;;;;;;;;28.58;47.61;101967.72;4842610;29;123894;-78
2023/08/16 12:28:37;;;;;;;;;;;;;;;28.57;47.31;101971.44;4843157;28;124521;-78
2023/08/16 12:31:04;;;;;;;;;;;;;;;28.56;47.26;101965.16;4852175;29;114926;-78